Terminal Aerodrome Forecast
Issued by NWS St Louis, MO

Home | Current Version | Previous Version | Text Only | Print | Product List | Glossary On
Versions: 1 2 3 4 5 6 7 8 9 10 11 12 13 14 15 16
000
FTUS43 KLSX 282300
TAFCOU
TAF
KCOU 282322Z 2900/2924 18015KT P6SM BKN150 WS018/22045KT
     FM290700 25014KT P6SM BKN100
     FM291000 30018G27KT P6SM OVC015
     FM291800 32016G25KT P6SM BKN020
     FM292100 32013G23KT P6SM SCT030=

USA.gov is the U.S. government's official web portal to all federal, state and local government web resources and services.